createdAt,value
2019-05-26T00:00:13.856Z,2.00
2019-05-26T00:02:43.270Z,2.17
2019-05-26T00:05:12.028Z,1.90
2019-05-26T00:07:41.000Z,2.33
2019-05-26T00:10:10.046Z,2.30
2019-05-26T00:12:39.976Z,2.10
2019-05-26T00:15:08.782Z,2.20
2019-05-26T00:17:37.802Z,2.33
2019-05-26T00:20:07.189Z,2.00
2019-05-26T00:22:36.107Z,2.40
2019-05-26T00:25:04.980Z,2.10
2019-05-26T00:27:33.823Z,2.03
2019-05-26T00:30:02.546Z,2.10
2019-05-26T00:32:31.282Z,2.07
2019-05-26T00:35:00.055Z,2.23
2019-05-26T00:37:45.644Z,2.30
2019-05-26T00:40:01.312Z,2.13
2019-05-26T00:42:30.071Z,2.27
2019-05-26T00:44:58.800Z,2.00
2019-05-26T00:47:27.617Z,2.20
2019-05-26T00:49:56.886Z,1.73
2019-05-26T00:52:25.619Z,2.13
2019-05-26T00:54:54.363Z,2.20
2019-05-26T00:57:23.247Z,2.33
2019-05-26T00:59:52.312Z,1.87
2019-05-26T01:02:21.068Z,2.37
2019-05-26T01:04:50.839Z,2.07
2019-05-26T01:07:19.558Z,1.90
2019-05-26T01:09:48.267Z,1.67
2019-05-26T01:12:16.996Z,2.20
2019-05-26T01:14:45.728Z,2.00
2019-05-26T01:17:14.473Z,1.80
2019-05-26T01:19:44.184Z,1.60
2019-05-26T01:22:12.907Z,2.17
2019-05-26T01:24:41.837Z,2.67
2019-05-26T01:27:10.591Z,1.80
2019-05-26T01:29:39.396Z,2.00
2019-05-26T01:32:08.151Z,2.00
2019-05-26T01:34:36.887Z,2.00
2019-05-26T01:37:05.695Z,2.00
2019-05-26T01:39:34.406Z,2.00
2019-05-26T01:42:03.476Z,1.97
2019-05-26T01:44:32.208Z,1.80
2019-05-26T01:47:00.917Z,2.10
2019-05-26T01:49:30.030Z,2.10
2019-05-26T01:51:58.759Z,1.83
2019-05-26T01:54:27.488Z,2.13
2019-05-26T01:56:57.021Z,1.67
2019-05-26T01:59:26.067Z,2.07
2019-05-26T02:01:58.533Z,1.93
2019-05-26T02:04:25.928Z,1.80
2019-05-26T02:06:54.651Z,2.20
2019-05-26T02:09:23.492Z,2.07
2019-05-26T02:11:52.227Z,1.97
2019-05-26T02:14:20.961Z,2.30
2019-05-26T02:16:49.864Z,2.13
2019-05-26T02:19:19.208Z,2.17
2019-05-26T02:21:47.940Z,2.13
2019-05-26T02:24:16.759Z,1.80
2019-05-26T02:26:45.508Z,1.77
2019-05-26T02:29:14.292Z,1.97
2019-05-26T02:31:43.020Z,2.23
2019-05-26T02:34:11.776Z,2.13
2019-05-26T02:36:40.506Z,1.97
2019-05-26T02:39:09.264Z,2.27
2019-05-26T02:41:38.045Z,1.90
2019-05-26T02:44:06.865Z,2.03
2019-05-26T02:46:35.610Z,2.00
2019-05-26T02:49:04.624Z,2.23
2019-05-26T02:51:33.353Z,2.03
2019-05-26T02:54:02.157Z,2.00
2019-05-26T02:56:31.380Z,2.30
2019-05-26T02:59:00.128Z,2.27
2019-05-26T03:01:29.033Z,2.03
2019-05-26T03:03:58.581Z,2.10
2019-05-26T03:06:27.316Z,2.10
2019-05-26T03:08:56.128Z,2.13
2019-05-26T03:11:24.894Z,2.23
2019-05-26T03:13:53.830Z,2.17
2019-05-26T03:16:22.555Z,2.27
2019-05-26T03:18:52.937Z,1.90
2019-05-26T03:21:21.735Z,2.30
2019-05-26T03:23:50.873Z,2.10
2019-05-26T03:26:20.044Z,2.27
2019-05-26T03:28:48.835Z,2.33
2019-05-26T03:31:17.608Z,2.23
2019-05-26T03:33:46.991Z,2.50
2019-05-26T03:36:15.815Z,2.10
2019-05-26T03:38:44.605Z,2.40
2019-05-26T03:41:13.627Z,2.23
2019-05-26T03:43:42.354Z,1.90
2019-05-26T03:46:18.642Z,2.23
2019-05-26T03:48:47.579Z,2.60
2019-05-26T03:51:16.325Z,2.33
2019-05-26T03:53:45.608Z,2.30
2019-05-26T03:56:14.375Z,2.73
2019-05-26T03:58:43.169Z,2.50
2019-05-26T04:01:11.928Z,2.50
2019-05-26T04:03:40.893Z,2.30
2019-05-26T04:06:10.145Z,2.40
2019-05-26T04:08:39.153Z,2.00
2019-05-26T04:11:07.998Z,2.30
2019-05-26T04:13:36.729Z,2.33
2019-05-26T04:16:06.419Z,2.57
2019-05-26T04:18:35.231Z,2.57
2019-05-26T04:21:04.025Z,2.03
2019-05-26T04:23:33.100Z,2.37
2019-05-26T04:26:01.919Z,2.40
2019-05-26T04:28:30.687Z,2.43
2019-05-26T04:30:59.479Z,2.50
2019-05-26T04:33:28.283Z,2.60
2019-05-26T04:35:57.084Z,2.63
2019-05-26T04:38:25.827Z,2.60
2019-05-26T04:40:54.536Z,2.43
2019-05-26T04:43:23.275Z,2.80
2019-05-26T04:45:52.358Z,2.10
2019-05-26T04:48:21.084Z,2.30
2019-05-26T04:50:49.832Z,2.63
2019-05-26T04:53:19.049Z,3.00
2019-05-26T04:55:47.770Z,2.93
2019-05-26T04:58:16.705Z,2.40
2019-05-26T05:00:45.707Z,2.60
2019-05-26T05:03:14.655Z,2.80
2019-05-26T05:05:45.066Z,3.20
2019-05-26T05:08:14.046Z,2.40
2019-05-26T05:10:43.127Z,2.67
2019-05-26T05:13:12.207Z,2.77
2019-05-26T05:15:41.672Z,2.50
2019-05-26T05:18:10.403Z,2.77
2019-05-26T05:20:39.371Z,3.10
2019-05-26T05:23:08.787Z,2.40
2019-05-26T05:25:37.523Z,2.77
2019-05-26T05:28:06.227Z,2.73
2019-05-26T05:30:34.972Z,2.57
2019-05-26T05:33:03.688Z,3.33
2019-05-26T05:35:32.424Z,3.20
2019-05-26T05:38:01.510Z,2.80
2019-05-26T05:40:30.231Z,2.93
2019-05-26T05:42:58.947Z,2.90
2019-05-26T05:45:28.187Z,2.60
2019-05-26T05:47:57.192Z,3.13
2019-05-26T05:50:25.919Z,3.33
2019-05-26T05:52:54.813Z,2.90
2019-05-26T05:55:23.670Z,3.00
2019-05-26T05:57:52.597Z,3.27
2019-05-26T06:00:21.683Z,3.10
2019-05-26T06:02:50.623Z,3.00
2019-05-26T06:05:19.806Z,2.80
2019-05-26T06:07:48.898Z,2.93
2019-05-26T06:10:17.623Z,3.17
2019-05-26T06:12:46.424Z,3.10
2019-05-26T06:15:17.710Z,2.80
2019-05-26T06:17:46.567Z,3.10
2019-05-26T06:20:15.295Z,3.13
2019-05-26T06:22:44.385Z,3.13
2019-05-26T06:25:13.128Z,2.23
2019-05-26T06:27:41.864Z,2.90
2019-05-26T06:30:12.273Z,2.93
2019-05-26T06:32:41.078Z,2.53
2019-05-26T06:35:09.826Z,2.83
2019-05-26T06:37:38.859Z,2.40
2019-05-26T06:40:07.594Z,2.93
2019-05-26T06:42:36.319Z,3.20
2019-05-26T06:45:05.837Z,2.70
2019-05-26T06:47:34.584Z,2.77
2019-05-26T06:50:03.408Z,2.67
2019-05-26T06:52:33.215Z,2.70
2019-05-26T06:55:01.949Z,2.80
2019-05-26T06:57:30.735Z,2.70
2019-05-26T07:00:00.099Z,2.53
2019-05-26T07:02:29.137Z,2.57
2019-05-26T07:04:58.410Z,2.30
2019-05-26T07:07:27.475Z,2.30
2019-05-26T07:09:56.343Z,3.17
2019-05-26T07:12:25.084Z,2.80
2019-05-26T07:14:54.659Z,2.30
2019-05-26T07:17:23.408Z,2.33
2019-05-26T07:19:52.237Z,2.33
2019-05-26T07:22:21.329Z,2.47
2019-05-26T07:24:50.065Z,2.70
2019-05-26T07:27:18.913Z,2.50
2019-05-26T07:29:47.655Z,2.23
2019-05-26T07:32:16.372Z,2.90
2019-05-26T07:34:45.099Z,2.60
2019-05-26T07:37:14.463Z,2.40
2019-05-26T07:39:43.426Z,2.77
2019-05-26T07:42:12.169Z,3.07
2019-05-26T07:44:41.323Z,2.60
2019-05-26T07:47:10.056Z,2.53
2019-05-26T07:49:38.767Z,2.63
2019-05-26T07:52:08.115Z,2.80
2019-05-26T07:54:36.839Z,2.90
2019-05-26T07:57:05.767Z,2.40
2019-05-26T07:59:35.606Z,2.80
2019-05-26T08:02:04.363Z,2.47
2019-05-26T08:04:33.255Z,2.10
2019-05-26T08:07:02.881Z,2.40
2019-05-26T08:09:31.637Z,2.27
2019-05-26T08:12:00.379Z,2.67
2019-05-26T08:14:29.706Z,2.60
2019-05-26T08:16:58.623Z,2.40
2019-05-26T08:19:27.342Z,2.00
2019-05-26T08:21:56.627Z,2.53
2019-05-26T08:24:25.384Z,2.57
2019-05-26T08:26:54.159Z,2.37
2019-05-26T08:29:23.168Z,2.20
2019-05-26T08:31:52.063Z,2.60
2019-05-26T08:34:20.782Z,2.60
2019-05-26T08:36:49.758Z,2.40
2019-05-26T08:39:18.586Z,2.20
2019-05-26T08:41:47.307Z,2.30
2019-05-26T08:44:16.759Z,2.10
2019-05-26T08:46:45.475Z,2.27
2019-05-26T08:49:14.210Z,2.00
2019-05-26T08:51:43.407Z,1.97
2019-05-26T08:54:12.127Z,2.13
2019-05-26T08:56:40.871Z,2.13
2019-05-26T08:59:10.384Z,2.20
2019-05-26T09:01:39.131Z,2.23
2019-05-26T09:04:08.115Z,2.57
2019-05-26T09:06:37.137Z,1.80
2019-05-26T09:09:07.368Z,2.47
2019-05-26T09:11:36.241Z,2.00
2019-05-26T09:14:04.998Z,2.00
2019-05-26T09:16:33.731Z,2.07
2019-05-26T09:19:02.705Z,2.30
2019-05-26T09:21:31.665Z,2.00
2019-05-26T09:24:00.437Z,2.50
2019-05-26T09:26:29.167Z,2.13
2019-05-26T09:28:58.111Z,2.00
2019-05-26T09:31:26.855Z,1.80
2019-05-26T09:33:56.853Z,2.43
2019-05-26T09:36:26.114Z,1.90
2019-05-26T09:38:54.830Z,2.10
2019-05-26T09:41:23.743Z,2.37
2019-05-26T09:43:53.065Z,2.13
2019-05-26T09:46:21.799Z,2.20
2019-05-26T09:48:50.606Z,1.90
2019-05-26T09:51:19.744Z,2.10
2019-05-26T09:54:00.892Z,2.20
2019-05-26T09:56:19.093Z,2.30
2019-05-26T09:58:48.544Z,2.03
2019-05-26T10:01:17.295Z,2.20
2019-05-26T10:03:46.058Z,2.00
2019-05-26T10:06:15.016Z,2.10
2019-05-26T10:08:44.071Z,2.13
2019-05-26T10:11:12.799Z,2.10
2019-05-26T10:13:41.996Z,2.17
2019-05-26T10:16:10.806Z,1.90
2019-05-26T10:18:39.539Z,2.00
2019-05-26T10:21:09.279Z,2.20
2019-05-26T10:23:38.011Z,1.97
2019-05-26T10:26:06.740Z,2.20
2019-05-26T10:28:35.763Z,2.10
2019-05-26T10:31:04.500Z,2.20
2019-05-26T10:33:33.308Z,1.90
2019-05-26T10:36:02.154Z,2.13
2019-05-26T10:38:31.408Z,2.07
2019-05-26T10:41:00.128Z,2.40
2019-05-26T10:43:29.605Z,1.90
2019-05-26T10:45:58.328Z,1.87
2019-05-26T10:48:27.315Z,2.10
2019-05-26T10:50:56.664Z,2.13
2019-05-26T10:53:25.639Z,2.20
2019-05-26T10:55:54.635Z,1.67
2019-05-26T10:58:23.815Z,2.17
2019-05-26T11:00:52.539Z,2.07
2019-05-26T11:03:21.262Z,2.20
2019-05-26T11:05:50.128Z,2.00
2019-05-26T11:08:19.013Z,2.13
2019-05-26T11:10:47.747Z,2.30
2019-05-26T11:13:16.523Z,2.30
2019-05-26T11:15:45.767Z,2.10
2019-05-26T11:18:14.489Z,2.07
2019-05-26T11:20:43.652Z,2.30
2019-05-26T11:23:12.371Z,2.20
2019-05-26T11:25:41.123Z,2.33
2019-05-26T11:28:09.861Z,2.47
2019-05-26T11:30:38.779Z,2.20
2019-05-26T11:33:07.504Z,2.17
2019-05-26T11:35:36.266Z,2.50
2019-05-26T11:38:05.079Z,2.10
2019-05-26T11:40:34.452Z,2.40
2019-05-26T11:43:15.664Z,2.40
2019-05-26T11:45:33.992Z,2.30
2019-05-26T11:48:02.955Z,2.43
2019-05-26T11:50:32.067Z,1.93
2019-05-26T11:53:00.924Z,1.87
2019-05-26T11:55:29.645Z,2.33
2019-05-26T11:57:58.751Z,2.33
2019-05-26T12:00:27.468Z,2.20
2019-05-26T12:02:56.204Z,1.90
2019-05-26T12:05:25.132Z,2.07
2019-05-26T12:07:54.156Z,2.07
2019-05-26T12:10:23.132Z,2.13
2019-05-26T12:12:51.934Z,2.70
2019-05-26T12:15:20.828Z,2.00
2019-05-26T12:17:49.558Z,2.10
2019-05-26T12:20:19.979Z,1.90
2019-05-26T12:22:48.703Z,2.20
2019-05-26T12:25:17.513Z,1.90
2019-05-26T12:27:46.280Z,1.93
2019-05-26T12:30:15.005Z,2.40
2019-05-26T12:32:43.765Z,1.77
2019-05-26T12:35:12.601Z,1.80
2019-05-26T12:37:41.329Z,1.93
2019-05-26T12:40:10.123Z,1.83
2019-05-26T12:42:40.178Z,2.00
2019-05-26T12:45:08.956Z,1.97
2019-05-26T12:47:37.698Z,2.00
2019-05-26T12:50:07.168Z,2.23
2019-05-26T12:52:35.895Z,1.83
2019-05-26T12:55:08.644Z,1.90
2019-05-26T12:57:36.293Z,1.70
2019-05-26T13:00:05.454Z,2.03
2019-05-26T13:02:34.201Z,2.03
2019-05-26T13:05:03.931Z,1.80
2019-05-26T13:07:32.936Z,2.00
2019-05-26T13:10:02.114Z,2.10
2019-05-26T13:12:30.977Z,2.00
2019-05-26T13:15:05.838Z,2.07
2019-05-26T13:17:30.165Z,1.90
2019-05-26T13:19:59.371Z,1.70
2019-05-26T13:22:28.109Z,1.40
2019-05-26T13:24:56.831Z,1.70
2019-05-26T13:27:25.855Z,1.67
2019-05-26T13:29:54.801Z,1.70
2019-05-26T13:32:23.672Z,1.70
2019-05-26T13:34:52.805Z,1.57
2019-05-26T13:37:21.588Z,1.80
2019-05-26T13:39:50.421Z,1.70
2019-05-26T13:42:19.630Z,1.70
2019-05-26T13:44:48.346Z,1.73
2019-05-26T13:47:25.648Z,1.80
2019-05-26T13:49:48.025Z,1.77
2019-05-26T13:52:16.838Z,1.50
2019-05-26T13:54:45.574Z,1.50
2019-05-26T13:57:14.767Z,1.60
2019-05-26T13:59:43.503Z,1.40
2019-05-26T14:02:12.225Z,1.73
2019-05-26T14:04:41.502Z,1.70
2019-05-26T14:07:10.243Z,1.37
2019-05-26T14:09:39.194Z,1.50
2019-05-26T14:12:08.354Z,1.60
2019-05-26T14:14:37.066Z,1.50
2019-05-26T14:17:05.975Z,1.50
2019-05-26T14:19:35.921Z,1.50
2019-05-26T14:22:05.046Z,1.73
2019-05-26T14:24:33.782Z,1.67
2019-05-26T14:27:02.564Z,1.33
2019-05-26T14:29:31.307Z,1.40
2019-05-26T14:32:00.057Z,1.40
2019-05-26T14:34:28.792Z,1.40
2019-05-26T14:36:57.604Z,1.60
2019-05-26T14:39:26.402Z,1.37
2019-05-26T14:41:55.751Z,1.80
2019-05-26T14:44:24.512Z,1.50
2019-05-26T14:46:53.220Z,1.20
2019-05-26T14:49:22.892Z,1.23
2019-05-26T14:51:51.603Z,1.50
2019-05-26T14:54:20.334Z,1.40
2019-05-26T14:56:49.548Z,1.10
2019-05-26T14:59:18.512Z,1.20
2019-05-26T15:01:47.323Z,1.17
2019-05-26T15:04:16.824Z,1.13
2019-05-26T15:06:45.549Z,0.97
2019-05-26T15:09:24.863Z,1.10
2019-05-26T15:11:45.732Z,1.10
2019-05-26T15:14:14.475Z,1.10
2019-05-26T15:16:43.196Z,1.60
2019-05-26T15:19:12.332Z,1.03
2019-05-26T15:21:41.069Z,1.00
2019-05-26T15:24:09.775Z,1.07
2019-05-26T15:26:38.511Z,1.17
2019-05-26T15:29:07.230Z,0.90
2019-05-26T15:31:35.966Z,0.90
2019-05-26T15:34:04.750Z,1.30
2019-05-26T15:36:33.459Z,1.20
2019-05-26T15:39:02.181Z,1.00
2019-05-26T15:41:31.263Z,0.90
2019-05-26T15:44:00.059Z,1.13
2019-05-26T15:46:28.770Z,1.27
2019-05-26T15:48:58.372Z,1.20
2019-05-26T15:51:27.093Z,1.10
2019-05-26T15:53:55.806Z,1.10
2019-05-26T15:56:24.861Z,1.00
2019-05-26T15:58:53.579Z,1.27
2019-05-26T16:01:22.322Z,1.00
2019-05-26T16:03:51.633Z,0.90
2019-05-26T16:06:20.372Z,1.30
2019-05-26T16:08:49.102Z,1.10
2019-05-26T16:11:18.006Z,1.10
2019-05-26T16:13:47.751Z,1.10
2019-05-26T16:16:16.876Z,1.10
2019-05-26T16:18:46.192Z,0.80
2019-05-26T16:21:27.573Z,1.23
2019-05-26T16:23:45.403Z,1.10
2019-05-26T16:26:14.170Z,1.10
2019-05-26T16:28:42.907Z,1.33
2019-05-26T16:31:12.378Z,1.20
2019-05-26T16:33:41.304Z,1.10
2019-05-26T16:36:10.028Z,1.10
2019-05-26T16:38:38.751Z,1.00
2019-05-26T16:41:07.930Z,1.00
2019-05-26T16:43:36.665Z,1.00
2019-05-26T16:46:05.410Z,1.10
2019-05-26T16:48:34.708Z,1.20
2019-05-26T16:51:03.447Z,1.30
2019-05-26T16:53:32.160Z,1.23
2019-05-26T16:56:01.055Z,1.17
2019-05-26T16:58:29.796Z,1.27
2019-05-26T17:00:58.839Z,1.23
2019-05-26T17:03:28.471Z,1.20
2019-05-26T17:06:07.553Z,1.00
2019-05-26T17:08:27.722Z,1.23
2019-05-26T17:10:56.652Z,1.10
2019-05-26T17:13:25.521Z,1.23
2019-05-26T17:15:54.402Z,1.20
2019-05-26T17:18:23.643Z,1.43
2019-05-26T17:20:52.382Z,1.37
2019-05-26T17:23:21.189Z,1.30
2019-05-26T17:25:50.416Z,1.17
2019-05-26T17:28:19.138Z,1.20
2019-05-26T17:30:47.866Z,1.33
2019-05-26T17:33:16.642Z,1.10
2019-05-26T17:35:45.492Z,1.10
2019-05-26T17:38:14.228Z,1.10
2019-05-26T17:40:43.003Z,1.20
2019-05-26T17:43:11.726Z,1.30
2019-05-26T17:45:40.444Z,1.20
2019-05-26T17:48:09.604Z,1.53
2019-05-26T17:50:38.571Z,1.20
2019-05-26T17:53:07.311Z,1.13
2019-05-26T17:55:36.266Z,1.00
2019-05-26T17:58:05.244Z,1.20
2019-05-26T18:00:33.957Z,1.17
2019-05-26T18:03:03.262Z,1.20
2019-05-26T18:05:32.220Z,1.10
2019-05-26T18:08:00.960Z,0.93
2019-05-26T18:10:30.312Z,0.87
2019-05-26T18:12:59.223Z,1.20
2019-05-26T18:15:28.538Z,1.23
2019-05-26T18:17:57.512Z,1.20
2019-05-26T18:20:26.238Z,0.93
2019-05-26T18:22:55.229Z,1.10
2019-05-26T18:25:24.267Z,1.10
2019-05-26T18:27:53.043Z,1.40
2019-05-26T18:30:21.760Z,1.17
2019-05-26T18:32:50.590Z,1.37
2019-05-26T18:35:19.316Z,1.20
2019-05-26T18:37:48.094Z,1.30
2019-05-26T18:40:16.844Z,1.40
2019-05-26T18:42:45.763Z,1.50
2019-05-26T18:45:14.513Z,1.20
2019-05-26T18:47:44.089Z,1.33
2019-05-26T18:50:12.845Z,1.20
2019-05-26T18:52:41.618Z,1.20
2019-05-26T18:55:11.181Z,1.20
2019-05-26T18:57:39.900Z,0.90
2019-05-26T19:00:08.818Z,1.00
2019-05-26T19:02:38.141Z,1.50
2019-05-26T19:05:07.279Z,1.10
2019-05-26T19:07:36.290Z,1.20
2019-05-26T19:10:05.747Z,1.00
2019-05-26T19:12:34.741Z,1.00
2019-05-26T19:15:04.067Z,1.10
2019-05-26T19:17:33.094Z,1.23
2019-05-26T19:20:14.964Z,0.90
2019-05-26T19:22:32.270Z,1.33
2019-05-26T19:25:01.215Z,1.20
2019-05-26T19:27:29.938Z,1.03
2019-05-26T19:29:58.660Z,1.27
2019-05-26T19:32:27.887Z,1.10
2019-05-26T19:34:56.635Z,1.10
2019-05-26T19:37:26.209Z,0.80
2019-05-26T19:39:54.961Z,1.17
2019-05-26T19:42:23.836Z,1.27
2019-05-26T19:44:52.561Z,1.00
2019-05-26T19:47:22.188Z,1.00
2019-05-26T19:49:50.987Z,1.30
2019-05-26T19:52:19.706Z,1.30
2019-05-26T19:54:49.636Z,0.97
2019-05-26T19:57:18.588Z,0.90
2019-05-26T19:59:47.419Z,1.20
2019-05-26T20:02:18.784Z,1.03
2019-05-26T20:04:47.264Z,1.20
2019-05-26T20:07:16.057Z,1.00
2019-05-26T20:09:45.049Z,1.20
2019-05-26T20:12:14.080Z,1.00
2019-05-26T20:14:43.308Z,1.07
2019-05-26T20:17:12.706Z,1.10
2019-05-26T20:19:41.451Z,0.90
2019-05-26T20:22:10.168Z,1.10
2019-05-26T20:24:39.468Z,1.30
2019-05-26T20:27:08.266Z,0.90
2019-05-26T20:29:37.004Z,1.00
2019-05-26T20:32:05.801Z,1.03
2019-05-26T20:34:34.556Z,0.90
2019-05-26T20:37:03.272Z,1.37
2019-05-26T20:39:32.679Z,1.20
2019-05-26T20:42:01.421Z,1.23
2019-05-26T20:44:30.131Z,1.10
2019-05-26T20:46:59.099Z,1.10
2019-05-26T20:49:42.487Z,1.00
2019-05-26T20:51:58.275Z,1.20
2019-05-26T20:54:27.591Z,1.17
2019-05-26T20:56:56.316Z,1.30
2019-05-26T20:59:25.034Z,1.10
2019-05-26T21:01:53.832Z,1.07
2019-05-26T21:04:22.552Z,1.30
2019-05-26T21:06:51.268Z,1.30
2019-05-26T21:09:20.579Z,1.40
2019-05-26T21:11:49.291Z,1.23
2019-05-26T21:14:18.622Z,1.00
2019-05-26T21:16:47.981Z,1.30
2019-05-26T21:19:16.700Z,1.33
2019-05-26T21:21:45.506Z,1.37
2019-05-26T21:24:14.579Z,1.30
2019-05-26T21:26:43.323Z,1.10
2019-05-26T21:29:12.196Z,1.20
2019-05-26T21:31:41.462Z,1.40
2019-05-26T21:34:10.459Z,0.90
2019-05-26T21:36:39.195Z,1.10
2019-05-26T21:39:08.453Z,1.27
2019-05-26T21:41:37.179Z,1.10
2019-05-26T21:44:05.908Z,1.57
2019-05-26T21:46:35.244Z,1.27
2019-05-26T21:49:04.075Z,1.20
2019-05-26T21:51:32.799Z,1.00
2019-05-26T21:54:01.876Z,1.03
2019-05-26T21:56:30.621Z,1.27
2019-05-26T21:58:59.403Z,1.10
2019-05-26T22:01:28.852Z,1.30
2019-05-26T22:03:57.563Z,1.13
2019-05-26T22:06:26.324Z,1.50
2019-05-26T22:08:55.796Z,1.30
2019-05-26T22:11:24.544Z,1.30
2019-05-26T22:13:53.579Z,1.17
2019-05-26T22:16:23.942Z,1.80
2019-05-26T22:18:52.664Z,1.00
2019-05-26T22:21:21.400Z,1.00
2019-05-26T22:23:50.195Z,1.40
2019-05-26T22:26:18.908Z,0.90
2019-05-26T22:28:47.624Z,1.30
2019-05-26T22:31:16.399Z,1.10
2019-05-26T22:33:45.114Z,1.33
2019-05-26T22:36:13.851Z,1.20
2019-05-26T22:38:42.915Z,1.40
2019-05-26T22:41:11.626Z,1.20
2019-05-26T22:43:40.352Z,1.30
2019-05-26T22:46:09.580Z,1.07
2019-05-26T22:48:38.383Z,1.43
2019-05-26T22:51:07.104Z,1.10
2019-05-26T22:53:36.256Z,1.10
2019-05-26T22:56:04.995Z,1.30
2019-05-26T22:58:33.727Z,1.33
2019-05-26T23:01:02.618Z,1.30
2019-05-26T23:03:31.343Z,1.03
2019-05-26T23:06:00.059Z,1.20
2019-05-26T23:08:29.284Z,1.30
2019-05-26T23:10:58.013Z,1.10
2019-05-26T23:13:26.740Z,1.40
2019-05-26T23:15:55.915Z,1.30
2019-05-26T23:18:25.615Z,1.30
2019-05-26T23:20:54.528Z,1.20
2019-05-26T23:23:24.031Z,1.00
2019-05-26T23:25:52.744Z,1.10
2019-05-26T23:28:21.476Z,0.90
2019-05-26T23:30:50.217Z,0.93
2019-05-26T23:33:18.926Z,1.20
2019-05-26T23:35:47.863Z,0.90
2019-05-26T23:38:16.930Z,1.00
2019-05-26T23:40:45.646Z,0.90
2019-05-26T23:43:14.364Z,0.97
2019-05-26T23:45:44.265Z,0.93
2019-05-26T23:48:13.226Z,0.97
2019-05-26T23:50:42.098Z,1.00
2019-05-26T23:53:10.987Z,0.87
2019-05-26T23:55:39.711Z,1.10
2019-05-26T23:58:08.436Z,1.03
